Galva, Illinois
Current Conditions -  °F | °C
As of 10:35 PM on Thursday 18 Dec 2014 (Local Time) from KGBG Reporting Station
Overcast Overcast  
Wind Chill: 26°   Ceiling: 4400
Heat Index: 26°   Visibility: 10mi
Dew Point: 22°   Wind: 3mph
Humidity: 86%   Direction: 30°NNE
Pressure: 30.29"   Gusts: NA
Location:  41.17°N, 90.04°W
Report Text: KGBG 190435Z AUTO 03003KT 10SM OVC044 M03/M06 A3029 RMK AO2 T10351056
Loading
Personal Weather Stations






























Interactive Weather Map New forecast layout! Learn more

10-Day Weather Forecast

Advertisements
Track Severe Weather on mobile